createdAt,value
2019-04-05T00:02:17.475Z,68.65
2019-04-05T00:04:47.634Z,68.45
2019-04-05T00:07:17.700Z,68.54
2019-04-05T00:09:47.528Z,68.52
2019-04-05T00:12:17.354Z,68.49
2019-04-05T00:14:47.104Z,68.56
2019-04-05T00:17:17.059Z,68.39
2019-04-05T00:19:47.005Z,68.35
2019-04-05T00:22:17.023Z,68.40
2019-04-05T00:24:46.929Z,68.50
2019-04-05T00:27:16.861Z,68.35
2019-04-05T00:29:46.730Z,68.41
2019-04-05T00:32:16.680Z,68.53
2019-04-05T00:34:46.564Z,68.51
2019-04-05T00:37:16.407Z,68.28
2019-04-05T00:39:47.480Z,68.35
2019-04-05T00:42:18.032Z,68.36
2019-04-05T00:44:49.018Z,68.58
2019-04-05T00:47:19.518Z,68.59
2019-04-05T00:49:49.344Z,68.46
2019-04-05T00:52:19.347Z,68.44
2019-04-05T00:54:49.316Z,68.44
2019-04-05T00:57:19.244Z,68.60
2019-04-05T00:59:49.153Z,68.48
2019-04-05T01:02:19.371Z,68.55
2019-04-05T01:04:49.248Z,68.78
2019-04-05T01:07:19.276Z,68.64
2019-04-05T01:09:49.408Z,68.51
2019-04-05T01:12:21.082Z,68.64
2019-04-05T01:14:51.451Z,68.62
2019-04-05T01:17:25.111Z,68.50
2019-04-05T01:19:56.416Z,68.36
2019-04-05T01:22:28.163Z,68.08
2019-04-05T01:24:58.674Z,68.10
2019-04-05T01:27:30.280Z,68.07
2019-04-05T01:30:00.398Z,68.03
2019-04-05T01:32:30.537Z,68.04
2019-04-05T01:35:00.512Z,68.02
2019-04-05T01:37:30.596Z,68.28
2019-04-05T01:40:01.332Z,68.45
2019-04-05T01:42:31.827Z,68.46
2019-04-05T01:45:01.841Z,68.41
2019-04-05T01:47:32.723Z,68.52
2019-04-05T01:50:03.701Z,68.42
2019-04-05T01:52:34.679Z,68.14
2019-04-05T01:55:04.883Z,68.20
2019-04-05T01:57:34.943Z,68.32
2019-04-05T02:00:06.215Z,68.48
2019-04-05T02:02:36.287Z,68.58
2019-04-05T02:05:07.654Z,68.50
2019-04-05T02:07:37.807Z,68.72
2019-04-05T02:10:08.825Z,68.67
2019-04-05T02:12:40.496Z,68.68
2019-04-05T02:15:12.182Z,68.84
2019-04-05T02:17:42.187Z,68.82
2019-04-05T02:20:12.332Z,68.67
2019-04-05T02:22:42.496Z,69.02
2019-04-05T02:25:12.408Z,68.85
2019-04-05T02:27:42.382Z,69.11
2019-04-05T02:30:12.424Z,69.10
2019-04-05T02:32:42.372Z,69.13
2019-04-05T02:35:12.749Z,69.14
2019-04-05T02:37:42.675Z,69.01
2019-04-05T02:40:14.021Z,69.25
2019-04-05T02:42:47.243Z,69.49
2019-04-05T02:45:19.340Z,69.36
2019-04-05T02:47:52.910Z,69.17
2019-04-05T02:50:25.382Z,69.17
2019-04-05T02:52:58.275Z,69.06
2019-04-05T02:55:29.806Z,68.91
2019-04-05T02:58:01.425Z,69.14
2019-04-05T03:00:32.428Z,69.18
2019-04-05T03:03:05.858Z,69.10
2019-04-05T03:05:36.661Z,69.00
2019-04-05T03:08:08.182Z,69.07
2019-04-05T03:11:02.667Z,69.06
2019-04-05T03:13:38.449Z,68.80
2019-04-05T03:16:18.717Z,68.85
2019-04-05T03:18:55.644Z,68.65
2019-04-05T03:21:28.803Z,68.62
2019-04-05T03:24:01.151Z,68.67
2019-04-05T03:26:34.033Z,68.73
2019-04-05T03:29:07.883Z,68.93
2019-04-05T03:31:38.934Z,69.11
2019-04-05T03:34:09.050Z,69.19
2019-04-05T03:36:40.747Z,69.28
2019-04-05T03:39:10.886Z,69.22
2019-04-05T03:41:40.832Z,69.12
2019-04-05T03:44:11.523Z,69.21
2019-04-05T03:46:55.224Z,69.20
2019-04-05T03:49:13.645Z,69.23
2019-04-05T03:51:44.754Z,69.33
2019-04-05T03:54:14.629Z,69.59
2019-04-05T03:56:44.850Z,69.69
2019-04-05T03:59:15.129Z,69.59
2019-04-05T04:01:45.580Z,69.18
2019-04-05T04:04:15.652Z,69.23
2019-04-05T04:06:45.834Z,69.07
2019-04-05T04:09:15.621Z,69.05
2019-04-05T04:11:45.957Z,68.84
2019-04-05T04:14:16.189Z,68.96
2019-04-05T04:16:46.390Z,68.98
2019-04-05T04:19:16.527Z,69.00
2019-04-05T04:21:53.930Z,69.43
2019-04-05T04:24:23.894Z,69.43
2019-04-05T04:26:53.843Z,69.71
2019-04-05T04:29:24.338Z,69.48
2019-04-05T04:31:54.674Z,69.43
2019-04-05T04:34:24.738Z,69.48
2019-04-05T04:36:54.746Z,69.38
2019-04-05T04:39:24.721Z,69.42
2019-04-05T04:41:54.940Z,69.80
2019-04-05T04:44:25.727Z,69.73
2019-04-05T04:46:55.981Z,69.70
2019-04-05T04:49:25.908Z,69.27
2019-04-05T04:51:55.786Z,69.37
2019-04-05T04:54:26.052Z,69.24
2019-04-05T04:56:56.169Z,69.15
2019-04-05T04:59:26.692Z,69.31
2019-04-05T05:01:57.868Z,69.29
2019-04-05T05:04:28.307Z,69.15
2019-04-05T05:06:58.386Z,69.02
2019-04-05T05:09:28.604Z,69.18
2019-04-05T05:11:58.673Z,69.04
2019-04-05T05:14:28.955Z,69.40
2019-04-05T05:16:59.177Z,69.01
2019-04-05T05:19:29.682Z,68.92
2019-04-05T05:21:59.819Z,69.06
2019-04-05T05:24:30.168Z,69.22
2019-04-05T05:27:00.387Z,69.22
2019-04-05T05:29:30.777Z,69.15
2019-04-05T05:32:00.739Z,69.07
2019-04-05T05:34:30.570Z,69.29
2019-04-05T05:37:00.951Z,69.25
2019-04-05T05:39:31.016Z,68.99
2019-04-05T05:42:01.013Z,69.04
2019-04-05T05:44:31.031Z,69.18
2019-04-05T05:47:00.901Z,69.35
2019-04-05T05:49:30.666Z,69.46
2019-04-05T05:52:01.102Z,69.62
2019-04-05T05:54:30.887Z,69.51
2019-04-05T05:57:00.676Z,69.73
2019-04-05T05:59:30.916Z,69.62
2019-04-05T06:02:01.840Z,69.75
2019-04-05T06:04:31.755Z,69.82
2019-04-05T06:07:02.217Z,69.83
2019-04-05T06:09:32.090Z,69.58
2019-04-05T06:12:02.315Z,69.42
2019-04-05T06:14:32.219Z,69.44
2019-04-05T06:17:02.074Z,69.55
2019-04-05T06:19:32.589Z,69.65
2019-04-05T06:22:02.711Z,69.66
2019-04-05T06:24:32.558Z,69.43
2019-04-05T06:27:02.493Z,69.57
2019-04-05T06:29:32.329Z,69.97
2019-04-05T06:32:02.188Z,69.93
2019-04-05T06:34:32.065Z,70.09
2019-04-05T06:37:02.063Z,69.82
2019-04-05T06:39:32.926Z,69.70
2019-04-05T06:42:02.710Z,69.85
2019-04-05T06:44:32.651Z,69.57
2019-04-05T06:47:02.769Z,69.55
2019-04-05T06:49:33.501Z,69.90
2019-04-05T06:52:04.496Z,70.06
2019-04-05T06:54:34.636Z,69.95
2019-04-05T06:57:04.573Z,69.86
2019-04-05T06:59:35.401Z,69.98
2019-04-05T07:02:05.386Z,69.86
2019-04-05T07:04:35.658Z,69.67
2019-04-05T07:07:05.657Z,69.91
2019-04-05T07:09:35.399Z,70.00
2019-04-05T07:12:05.728Z,69.89
2019-04-05T07:14:35.495Z,70.03
2019-04-05T07:17:06.085Z,69.82
2019-04-05T07:19:35.935Z,70.03
2019-04-05T07:22:05.897Z,70.05
2019-04-05T07:24:35.644Z,69.47
2019-04-05T07:27:05.460Z,69.41
2019-04-05T07:29:35.232Z,69.42
2019-04-05T07:32:05.413Z,69.18
2019-04-05T07:34:35.228Z,69.41
2019-04-05T07:37:05.562Z,69.18
2019-04-05T07:39:35.456Z,68.93
2019-04-05T07:42:05.762Z,69.10
2019-04-05T07:44:35.730Z,68.98
2019-04-05T07:47:05.633Z,69.12
2019-04-05T07:49:35.499Z,69.52
2019-04-05T07:52:05.397Z,69.35
2019-04-05T07:54:35.258Z,69.28
2019-04-05T07:57:05.170Z,69.27
2019-04-05T07:59:34.952Z,69.07
2019-04-05T08:02:04.874Z,69.51
2019-04-05T08:04:35.678Z,69.71
2019-04-05T08:07:06.940Z,69.30
2019-04-05T08:09:38.662Z,69.15
2019-04-05T08:12:09.062Z,68.99
2019-04-05T08:14:40.924Z,68.99
2019-04-05T08:17:10.775Z,69.03
2019-04-05T08:19:41.075Z,69.12
2019-04-05T08:22:11.040Z,69.03
2019-04-05T08:24:41.057Z,69.23
2019-04-05T08:27:10.933Z,69.35
2019-04-05T08:29:40.783Z,69.44
2019-04-05T08:32:14.920Z,69.33
2019-04-05T08:34:42.107Z,69.32
2019-04-05T08:37:11.906Z,69.31
2019-04-05T08:39:41.878Z,69.42
2019-04-05T08:42:11.786Z,69.14
2019-04-05T08:44:41.622Z,68.77
2019-04-05T08:47:11.593Z,68.89
2019-04-05T08:49:41.410Z,68.88
2019-04-05T08:52:11.333Z,68.97
2019-04-05T08:54:41.355Z,68.87
2019-04-05T08:57:11.455Z,69.05
2019-04-05T08:59:41.411Z,69.26
2019-04-05T09:02:11.327Z,69.38
2019-04-05T09:04:41.215Z,69.07
2019-04-05T09:07:11.131Z,68.88
2019-04-05T09:09:40.975Z,68.89
2019-04-05T09:12:10.858Z,68.73
2019-04-05T09:14:40.662Z,68.51
2019-04-05T09:17:10.557Z,68.49
2019-04-05T09:19:40.421Z,68.47
2019-04-05T09:22:10.277Z,68.78
2019-04-05T09:24:40.178Z,68.81
2019-04-05T09:27:10.140Z,68.79
2019-04-05T09:29:40.131Z,68.61
2019-04-05T09:32:09.932Z,68.59
2019-04-05T09:34:39.779Z,68.50
2019-04-05T09:37:09.610Z,68.56
2019-04-05T09:39:39.399Z,68.13
2019-04-05T09:42:09.431Z,67.85
2019-04-05T09:44:39.319Z,67.92
2019-04-05T09:47:09.174Z,68.04
2019-04-05T09:49:39.148Z,67.70
2019-04-05T09:52:08.935Z,67.60
2019-04-05T09:54:39.094Z,67.78
2019-04-05T09:57:09.951Z,68.25
2019-04-05T09:59:39.826Z,68.50
2019-04-05T10:02:09.885Z,68.23
2019-04-05T10:04:39.682Z,68.19
2019-04-05T10:07:09.609Z,68.15
2019-04-05T10:09:39.798Z,68.59
2019-04-05T10:12:09.717Z,68.68
2019-04-05T10:14:39.813Z,68.62
2019-04-05T10:17:10.245Z,68.47
2019-04-05T10:19:49.816Z,68.46
2019-04-05T10:22:11.638Z,68.38
2019-04-05T10:24:41.684Z,68.10
2019-04-05T10:27:11.505Z,67.94
2019-04-05T10:29:42.173Z,67.99
2019-04-05T10:32:11.957Z,67.84
2019-04-05T10:34:41.837Z,67.74
2019-04-05T10:37:11.583Z,68.04
2019-04-05T10:39:41.499Z,68.29
2019-04-05T10:42:20.051Z,68.47
2019-04-05T10:44:49.830Z,68.21
2019-04-05T10:47:19.600Z,68.35
2019-04-05T10:50:01.698Z,68.38
2019-04-05T10:52:20.895Z,68.08
2019-04-05T10:54:50.830Z,67.63
2019-04-05T10:57:20.933Z,67.63
2019-04-05T10:59:51.276Z,67.52
2019-04-05T11:02:21.215Z,67.32
2019-04-05T11:04:51.110Z,67.41
2019-04-05T11:07:20.900Z,67.60
2019-04-05T11:09:53.472Z,67.50
2019-04-05T11:12:22.440Z,67.53
2019-04-05T11:14:53.346Z,67.71
2019-04-05T11:17:23.256Z,67.76
2019-04-05T11:19:53.079Z,67.72
2019-04-05T11:22:23.145Z,67.77
2019-04-05T11:24:52.900Z,67.71
2019-04-05T11:27:22.668Z,67.61
2019-04-05T11:29:52.462Z,67.69
2019-04-05T11:32:22.984Z,67.73
2019-04-05T11:34:53.156Z,67.95
2019-04-05T11:37:23.614Z,68.04
2019-04-05T11:39:53.523Z,68.07
2019-04-05T11:42:25.674Z,68.32
2019-04-05T11:44:58.733Z,68.47
2019-04-05T11:47:30.822Z,68.34
2019-04-05T11:50:02.528Z,68.17
2019-04-05T11:52:32.516Z,67.98
2019-04-05T11:55:04.670Z,67.85
2019-04-05T11:57:34.188Z,67.94
2019-04-05T12:00:07.471Z,67.90
2019-04-05T12:02:41.098Z,67.84
2019-04-05T12:05:13.131Z,67.87
2019-04-05T12:07:43.013Z,68.33
2019-04-05T12:10:13.010Z,68.38
2019-04-05T12:12:42.948Z,68.09
2019-04-05T12:15:13.184Z,68.05
2019-04-05T12:17:43.339Z,67.91
2019-04-05T12:20:13.974Z,67.88
2019-04-05T12:22:43.783Z,67.99
2019-04-05T12:25:14.176Z,68.12
2019-04-05T12:27:44.177Z,68.19
2019-04-05T12:30:17.526Z,68.20
2019-04-05T12:32:48.815Z,68.10
2019-04-05T12:35:21.553Z,68.16
2019-04-05T12:37:55.512Z,68.27
2019-04-05T12:40:23.054Z,68.44
2019-04-05T12:42:53.284Z,68.41
2019-04-05T12:45:23.147Z,68.16
2019-04-05T12:47:52.918Z,68.13
2019-04-05T12:50:22.687Z,68.14
2019-04-05T12:52:54.732Z,68.32
2019-04-05T12:55:24.662Z,68.50
2019-04-05T12:57:56.204Z,68.75
2019-04-05T13:00:26.482Z,68.94
2019-04-05T13:02:57.245Z,68.87
2019-04-05T13:05:27.335Z,68.72
2019-04-05T13:07:57.087Z,68.66
2019-04-05T13:10:30.272Z,68.62
2019-04-05T13:12:58.565Z,68.49
2019-04-05T13:15:28.485Z,68.32
2019-04-05T13:18:00.424Z,68.42
2019-04-05T13:20:30.371Z,68.53
2019-04-05T13:23:04.449Z,68.47
2019-04-05T13:25:33.421Z,68.68
2019-04-05T13:28:12.694Z,68.70
2019-04-05T13:30:35.730Z,68.86
2019-04-05T13:33:05.710Z,68.68
2019-04-05T13:35:36.498Z,68.71
2019-04-05T13:38:06.663Z,68.56
2019-04-05T13:40:36.982Z,68.45
2019-04-05T13:43:06.953Z,68.52
2019-04-05T13:45:36.830Z,68.48
2019-04-05T13:48:09.083Z,68.38
2019-04-05T13:50:41.470Z,68.45
2019-04-05T13:53:11.329Z,68.31
2019-04-05T13:55:41.871Z,68.10
2019-04-05T13:58:12.078Z,68.15
2019-04-05T14:00:42.023Z,68.10
2019-04-05T14:03:12.012Z,68.06
2019-04-05T14:05:41.866Z,68.14
2019-04-05T14:08:11.604Z,67.94
2019-04-05T14:10:42.049Z,67.69
2019-04-05T14:13:11.861Z,67.71
2019-04-05T14:15:43.081Z,67.68
2019-04-05T14:18:15.261Z,67.75
2019-04-05T14:20:45.237Z,67.70
2019-04-05T14:23:15.126Z,67.88
2019-04-05T14:25:45.138Z,68.24
2019-04-05T14:28:15.243Z,68.67
2019-04-05T14:30:47.676Z,68.84
2019-04-05T14:33:17.710Z,68.93
2019-04-05T14:35:47.748Z,68.75
2019-04-05T14:38:17.629Z,68.64
2019-04-05T14:40:47.558Z,68.47
2019-04-05T14:43:17.622Z,68.62
2019-04-05T14:45:48.409Z,68.73
2019-04-05T14:48:18.234Z,68.69
2019-04-05T14:50:48.099Z,68.52
2019-04-05T14:53:17.956Z,68.58
2019-04-05T14:55:47.872Z,68.57
2019-04-05T14:58:19.221Z,68.52
2019-04-05T15:00:49.521Z,68.57
2019-04-05T15:03:19.636Z,68.59
2019-04-05T15:05:49.518Z,68.83
2019-04-05T15:08:20.684Z,68.76
2019-04-05T15:10:51.416Z,68.81
2019-04-05T15:13:21.520Z,69.02
2019-04-05T15:15:51.310Z,69.00
2019-04-05T15:18:24.228Z,68.81
2019-04-05T15:20:52.645Z,68.82
2019-04-05T15:23:22.582Z,68.79
2019-04-05T15:25:52.525Z,68.89
2019-04-05T15:28:24.577Z,69.07
2019-04-05T15:30:56.158Z,69.09
2019-04-05T15:33:27.750Z,69.31
2019-04-05T15:36:00.203Z,69.43
2019-04-05T15:38:31.474Z,69.48
2019-04-05T15:41:00.953Z,69.67
2019-04-05T15:43:31.864Z,69.65
2019-04-05T15:46:03.284Z,69.69
2019-04-05T15:48:33.211Z,69.80
2019-04-05T15:51:03.262Z,69.72
2019-04-05T15:53:33.380Z,69.71
2019-04-05T15:56:04.272Z,69.54
2019-04-05T15:58:34.704Z,69.46
2019-04-05T16:01:05.958Z,69.61
2019-04-05T16:03:37.022Z,69.60
2019-04-05T16:06:08.168Z,69.64
2019-04-05T16:08:38.458Z,69.64
2019-04-05T16:11:08.373Z,69.55
2019-04-05T16:13:38.300Z,69.65
2019-04-05T16:16:08.204Z,69.63
2019-04-05T16:18:38.229Z,69.63
2019-04-05T16:21:08.064Z,69.70
2019-04-05T16:23:39.312Z,69.63
2019-04-05T16:26:09.298Z,69.82
2019-04-05T16:28:40.954Z,69.87
2019-04-05T16:31:11.149Z,69.83
2019-04-05T16:33:41.756Z,69.98
2019-04-05T16:36:11.700Z,69.99
2019-04-05T16:38:41.532Z,69.91
2019-04-05T16:41:11.427Z,70.00
2019-04-05T16:43:41.235Z,69.99
2019-04-05T16:46:11.149Z,69.92
2019-04-05T16:48:41.050Z,69.90
2019-04-05T16:51:10.902Z,70.03
2019-04-05T16:53:59.467Z,69.96
2019-04-05T16:56:29.909Z,70.10
2019-04-05T16:58:59.951Z,70.26
2019-04-05T17:01:29.924Z,70.03
2019-04-05T17:03:59.818Z,69.74
2019-04-05T17:06:29.766Z,69.57
2019-04-05T17:08:59.579Z,69.46
2019-04-05T17:11:29.681Z,69.36
2019-04-05T17:13:59.710Z,69.68
2019-04-05T17:16:29.674Z,69.93
2019-04-05T17:18:59.785Z,69.99
2019-04-05T17:21:29.701Z,69.81
2019-04-05T17:24:01.023Z,69.57
2019-04-05T17:26:31.446Z,69.47
2019-04-05T17:29:02.392Z,69.50
2019-04-05T17:31:32.199Z,69.79
2019-04-05T17:34:02.207Z,69.98
2019-04-05T17:36:32.123Z,70.03
2019-04-05T17:39:05.018Z,69.78
2019-04-05T17:41:34.842Z,69.47
2019-04-05T17:44:04.864Z,69.28
2019-04-05T17:46:34.774Z,69.11
2019-04-05T17:49:04.916Z,69.05
2019-04-05T17:51:34.668Z,69.31
2019-04-05T17:54:04.907Z,69.36
2019-04-05T17:56:35.825Z,69.32
2019-04-05T17:59:05.992Z,69.48
2019-04-05T18:01:38.664Z,69.46
2019-04-05T18:04:08.122Z,69.49
2019-04-05T18:06:38.296Z,69.45
2019-04-05T18:09:08.389Z,69.35
2019-04-05T18:11:38.477Z,69.70
2019-04-05T18:14:08.440Z,69.80
2019-04-05T18:16:38.363Z,69.83
2019-04-05T18:19:08.395Z,69.56
2019-04-05T18:21:38.419Z,69.58
2019-04-05T18:24:09.565Z,69.69
2019-04-05T18:26:39.441Z,70.02
2019-04-05T18:29:09.454Z,70.07
2019-04-05T18:31:39.572Z,69.95
2019-04-05T18:34:09.466Z,69.74
2019-04-05T18:36:39.582Z,69.78
2019-04-05T18:39:10.094Z,70.01
2019-04-05T18:41:40.175Z,69.91
2019-04-05T18:44:10.427Z,69.67
2019-04-05T18:46:40.336Z,69.63
2019-04-05T18:49:11.020Z,69.59
2019-04-05T18:51:42.153Z,69.50
2019-04-05T18:54:12.005Z,69.27
2019-04-05T18:56:41.996Z,69.16
2019-04-05T18:59:12.126Z,69.31
2019-04-05T19:01:42.526Z,69.44
2019-04-05T19:04:13.064Z,69.43
2019-04-05T19:06:42.980Z,69.48
2019-04-05T19:09:12.799Z,69.55
2019-04-05T19:11:42.898Z,69.61
2019-04-05T19:14:13.099Z,69.77
2019-04-05T19:16:43.074Z,69.89
2019-04-05T19:19:13.011Z,69.90
2019-04-05T19:21:43.093Z,69.65
2019-04-05T19:24:12.884Z,70.17
2019-04-05T19:26:42.739Z,70.16
2019-04-05T19:29:12.789Z,70.26
2019-04-05T19:49:24.447Z,69.93
2019-04-05T19:51:54.303Z,69.73
2019-04-05T19:54:26.407Z,69.60
2019-04-05T19:56:55.855Z,69.77
2019-04-05T19:59:25.810Z,69.96
2019-04-05T20:01:55.775Z,70.03
2019-04-05T20:04:25.791Z,70.27
2019-04-05T20:06:58.709Z,70.44
2019-04-05T20:09:27.716Z,70.68
2019-04-05T20:11:57.559Z,70.79
2019-04-05T20:14:27.361Z,70.86
2019-04-05T20:16:57.330Z,70.98
2019-04-05T20:19:28.188Z,71.02
2019-04-05T20:21:58.265Z,71.01
2019-04-05T20:24:28.201Z,71.05
2019-04-05T20:26:58.479Z,71.40
2019-04-05T20:29:28.385Z,71.68
2019-04-05T20:31:58.410Z,72.32
2019-04-05T20:34:28.331Z,72.67
2019-04-05T20:36:59.302Z,72.62
2019-04-05T20:39:29.373Z,72.75
2019-04-05T20:41:59.168Z,72.67
2019-04-05T20:44:29.011Z,72.72
2019-04-05T20:46:58.796Z,72.44
2019-04-05T20:49:29.132Z,72.37
2019-04-05T20:51:58.992Z,72.45
2019-04-05T20:54:29.216Z,72.72
2019-04-05T20:56:59.105Z,72.73
2019-04-05T20:59:29.192Z,72.74
2019-04-05T21:01:59.031Z,73.12
2019-04-05T21:04:28.868Z,73.49
2019-04-05T21:06:58.788Z,73.66
2019-04-05T21:09:28.681Z,73.68
2019-04-05T21:11:59.031Z,73.25
2019-04-05T21:14:29.028Z,73.42
2019-04-05T21:16:58.853Z,73.60
2019-04-05T21:19:31.868Z,73.38
2019-04-05T21:22:01.655Z,73.49
2019-04-05T21:24:36.399Z,73.49
2019-04-05T21:27:03.353Z,73.25
2019-04-05T21:29:33.358Z,73.25
2019-04-05T21:32:08.122Z,73.42
2019-04-05T21:34:38.030Z,73.59
2019-04-05T21:37:07.896Z,73.36
2019-04-05T21:39:37.804Z,73.12
2019-04-05T21:42:07.908Z,72.92
2019-04-05T21:44:38.331Z,72.86
2019-04-05T21:47:08.837Z,73.07
2019-04-05T21:49:39.779Z,72.79
2019-04-05T21:52:10.037Z,72.58
2019-04-05T21:54:47.440Z,73.00
2019-04-05T21:57:12.103Z,72.80
2019-04-05T21:59:41.851Z,72.69
2019-04-05T22:02:11.839Z,72.57
2019-04-05T22:04:41.745Z,72.53
2019-04-05T22:07:12.488Z,72.62
2019-04-05T22:09:42.669Z,72.52
2019-04-05T22:12:12.514Z,72.52
2019-04-05T22:14:44.973Z,72.69
2019-04-05T22:17:15.477Z,72.54
2019-04-05T22:19:49.701Z,72.28
2019-04-05T22:22:20.059Z,72.50
2019-04-05T22:24:58.822Z,72.66
2019-04-05T22:27:22.272Z,72.28
2019-04-05T22:29:52.435Z,72.67
2019-04-05T22:32:22.502Z,72.75
2019-04-05T22:34:52.636Z,72.59
2019-04-05T22:37:23.057Z,72.82
2019-04-05T22:39:53.397Z,72.72
2019-04-05T22:42:23.201Z,72.21
2019-04-05T22:44:53.107Z,71.94
2019-04-05T22:47:22.914Z,71.61
2019-04-05T22:49:52.717Z,71.35
2019-04-05T22:52:22.558Z,71.10
2019-04-05T22:54:53.390Z,70.77
2019-04-05T22:57:23.344Z,70.67
2019-04-05T22:59:53.131Z,70.67
2019-04-05T23:02:23.022Z,70.74
2019-04-05T23:04:53.220Z,71.35
2019-04-05T23:07:23.179Z,71.39
2019-04-05T23:09:52.992Z,71.50
2019-04-05T23:12:22.915Z,71.46
2019-04-05T23:14:52.826Z,71.69
2019-04-05T23:17:22.725Z,71.87
2019-04-05T23:19:52.744Z,71.91
2019-04-05T23:22:22.883Z,71.79
2019-04-05T23:24:52.987Z,71.71
2019-04-05T23:27:22.934Z,71.73
2019-04-05T23:29:52.809Z,71.86
2019-04-05T23:32:22.826Z,72.06
2019-04-05T23:34:52.693Z,72.15
2019-04-05T23:37:22.537Z,72.54
2019-04-05T23:39:52.492Z,72.65
2019-04-05T23:42:22.424Z,72.40
2019-04-05T23:44:52.569Z,72.10
2019-04-05T23:47:22.386Z,71.90
2019-04-05T23:49:52.377Z,71.91
2019-04-05T23:52:22.230Z,71.60
2019-04-05T23:54:52.110Z,71.51
2019-04-05T23:57:21.941Z,71.43
2019-04-05T23:59:51.869Z,71.49
